KPQI/PQI METAR and TAF weather

Enter ICAO airport designator
Station Type Date Time Source
KPQI METAR 2019/02/16 06:56 UTC NOAA

KPQI 160656Z AUTO 23005KT 10SM -SN OVC060 01/M01 A2954 RMK AO2 RAE0558B46E54SNB0558 SLP048 P0000 T00061011 FZRANO


Station Type Date Time Source
KPQI Decoded METAR 2019/02/16 06:56 UTC NOAA

Presque Isle, ME, United States (KPQI) 46-41N 068-03W 146M
Feb 16, 2019 - 01:56 AM EST / 2019.02.16 0656 UTC
Wind: from the SW (230 degrees) at 6 MPH (5 KT):0
Visibility: 10 mile(s):0
Sky conditions: overcast
Weather: light snow
Precipitation last hour: A trace
Temperature: 33.1 F (0.6 C)
Windchill: 28 F (-2 C):1
Dew Point: 30.0 F (-1.1 C)
Relative Humidity: 88%
Pressure (altimeter): 29.54 in. Hg (1000 hPa)
ob: KPQI 160656Z AUTO 23005KT 10SM -SN OVC060 01/M01 A2954 RMK AO2 RAE0558B46E54SNB0558 SLP048 P0000 T00061011 FZRANO
cycle: 7

Station Type Date Time Source
KPQI TAF 2019/02/16 06:48 UTC NOAA

TAF KPQI 160547Z 1606/1706 20012G20KT 6SM -SHSN OVC007
FM160700 24011KT 3SM -SN OVC015
FM161000 25007KT P6SM BKN050
FM161600 28012G22KT P6SM SCT025 BKN035
FM170000 30010KT P6SM SCT030


Example: see airport list